Terminal Aerodrome Forecast
Issued by NWS

Home | Current Version | Previous Version | Text Only | Print | Product List | Glossary On
Versions: 1 2 3 4 5 6 7 8 9 10 11 12 13 14 15 16
000
FTUS45 KTFX 300536
TAFHVR
TAF
KHVR 300536Z 3006/3106 09017KT P6SM SCT070 BKN120
     FM300900 08011KT P6SM VCSH SCT040 BKN070
      TEMPO 3010/3014 5SM -SHRA BKN035
     FM301600 08011KT P6SM SCT060 BKN100
     FM302100 11008KT P6SM VCTS SCT035CB BKN050 PROB30 3023/3102
      VRB15G30KT -SHRA BKN035=

USA.gov is the U.S. government's official web portal to all federal, state and local government web resources and services.